Time;durP1;ratioP1;P1;durP2;ratioP2;P2;SDS_P1;SDS_P2;PMS_P1;PMS_P2;Temp;Humidity;BMP_temperature;BMP_pressure;BME280_temperature;BME280_humidity;BME280_pressure;Samples;Min_cycle;Max_cycle;Signal;HPM_P1;HPM_P2
2022/12/06 00:01:25;;;;;;;56.83;20.38;;;2.70;99.90;;;;;;5053223;28;20036;-83
2022/12/06 00:03:53;;;;;;;63.40;20.65;;;2.70;99.90;;;;;;5053562;28;20067;-83
2022/12/06 00:06:21;;;;;;;60.83;19.95;;;2.70;99.90;;;;;;5053384;28;20370;-83
2022/12/06 00:08:48;;;;;;;56.72;19.88;;;2.70;99.90;;;;;;5053584;28;20070;-83
2022/12/06 00:11:22;;;;;;;73.80;20.60;;;2.70;99.90;;;;;;5052879;28;20053;-83
2022/12/06 00:13:58;;;;;;;70.88;20.73;;;2.60;99.90;;;;;;5053261;28;20021;-83
2022/12/06 00:16:24;;;;;;;78.45;21.38;;;2.60;99.90;;;;;;5053209;28;20520;-83
2022/12/06 00:18:50;;;;;;;74.10;19.83;;;2.30;99.90;;;;;;5041965;28;20022;-83
2022/12/06 00:21:22;;;;;;;44.13;20.27;;;2.50;99.90;;;;;;5033167;28;20100;-83
2022/12/06 00:23:50;;;;;;;70.57;19.60;;;2.50;99.90;;;;;;5033707;28;20051;-83
2022/12/06 00:26:17;;;;;;;46.28;18.92;;;2.50;99.90;;;;;;5032541;28;20053;-83
2022/12/06 00:28:43;;;;;;;62.17;19.33;;;2.40;99.90;;;;;;5031720;28;20515;-83
2022/12/06 00:31:20;;;;;;;51.25;19.45;;;2.50;99.90;;;;;;5032980;28;20060;-83
2022/12/06 00:33:45;;;;;;;46.30;20.08;;;2.50;99.90;;;;;;5044305;28;20417;-83
2022/12/06 00:36:17;;;;;;;45.67;19.35;;;2.50;99.90;;;;;;5053024;28;20032;-83
2022/12/06 00:38:43;;;;;;;66.85;19.88;;;2.60;99.90;;;;;;5051384;28;20041;-83
2022/12/06 00:41:11;;;;;;;64.30;19.77;;;2.60;99.90;;;;;;5052277;28;20025;-83
2022/12/06 00:43:37;;;;;;;69.20;20.15;;;2.50;99.90;;;;;;5052785;28;20025;-83
2022/12/06 00:46:04;;;;;;;79.55;20.95;;;2.50;99.90;;;;;;5052536;28;20032;-83
2022/12/06 00:48:31;;;;;;;55.10;19.70;;;2.50;99.90;;;;;;5052320;28;20112;-83
2022/12/06 00:50:56;;;;;;;53.00;19.25;;;2.50;99.90;;;;;;5052750;28;20021;-83
2022/12/06 00:53:22;;;;;;;59.20;19.65;;;2.60;99.90;;;;;;5052689;28;20044;-83
2022/12/06 00:55:48;;;;;;;39.53;19.50;;;2.50;99.90;;;;;;5051984;28;20385;-83
2022/12/06 00:58:14;;;;;;;66.45;19.85;;;2.60;99.90;;;;;;5052724;28;20025;-83
2022/12/06 01:00:40;;;;;;;72.50;20.23;;;2.50;99.90;;;;;;5052313;28;20109;-83
2022/12/06 01:03:06;;;;;;;56.67;19.80;;;2.50;99.90;;;;;;5052465;28;20100;-83
2022/12/06 01:05:33;;;;;;;51.42;19.42;;;2.60;99.90;;;;;;5052489;28;20104;-83
2022/12/06 01:07:59;;;;;;;107.72;20.77;;;2.60;99.90;;;;;;5052380;28;20040;-83
2022/12/06 01:10:25;;;;;;;58.35;19.85;;;2.50;99.90;;;;;;5051971;28;20025;-83
2022/12/06 01:12:51;;;;;;;51.38;20.48;;;2.50;99.90;;;;;;5052411;28;20025;-83
2022/12/06 01:15:16;;;;;;;56.45;19.67;;;2.60;99.90;;;;;;5052422;28;20025;-83
2022/12/06 01:17:42;;;;;;;98.22;19.10;;;2.60;99.90;;;;;;5050095;28;20070;-83
2022/12/06 01:20:08;;;;;;;60.75;19.00;;;2.30;99.90;;;;;;5032214;28;20052;-83
2022/12/06 01:22:34;;;;;;;78.50;17.77;;;2.30;99.90;;;;;;5032519;28;20501;-83
2022/12/06 01:25:00;;;;;;;102.68;19.30;;;2.80;99.90;;;;;;5032463;28;20052;-83
2022/12/06 01:27:29;;;;;;;51.55;18.10;;;1.80;99.90;;;;;;5030354;28;20053;-83
2022/12/06 01:29:54;;;;;;;63.42;18.30;;;2.10;99.90;;;;;;5031835;28;20026;-83
2022/12/06 01:32:20;;;;;;;70.20;17.45;;;2.20;99.90;;;;;;5031454;28;20164;-83
2022/12/06 01:34:45;;;;;;;41.88;16.88;;;2.30;99.90;;;;;;5051538;28;20017;-84
2022/12/06 01:37:11;;;;;;;51.65;16.58;;;2.30;99.90;;;;;;5051785;28;20052;-84
2022/12/06 01:39:37;;;;;;;97.57;16.45;;;2.40;99.90;;;;;;5051528;28;20110;-83
2022/12/06 01:42:03;;;;;;;52.97;16.13;;;2.30;99.90;;;;;;5051994;28;20040;-83
2022/12/06 01:44:53;;;;;;;54.22;16.95;;;2.20;99.90;;;;;;5051705;28;20481;-83
2022/12/06 01:47:28;;;;;;;44.95;16.60;;;2.30;99.90;;;;;;5051571;28;20036;-83
2022/12/06 01:50:02;;;;;;;31.73;16.83;;;2.40;99.90;;;;;;5051640;28;20409;-83
2022/12/06 01:52:44;;;;;;;55.63;16.90;;;2.50;99.90;;;;;;5051642;28;20021;-83
2022/12/06 01:55:12;;;;;;;70.55;17.58;;;2.50;99.90;;;;;;5052107;28;20029;-83
2022/12/06 01:57:39;;;;;;;69.90;18.95;;;2.20;99.90;;;;;;5051585;28;20413;-83
2022/12/06 02:00:05;;;;;;;46.95;16.98;;;2.30;99.90;;;;;;5051735;28;20074;-83
2022/12/06 02:02:31;;;;;;;31.98;16.50;;;2.20;99.90;;;;;;5051555;28;20603;-84
2022/12/06 02:04:59;;;;;;;64.47;18.20;;;2.20;99.90;;;;;;5052141;28;20124;-84
2022/12/06 02:07:26;;;;;;;38.03;17.08;;;2.10;99.90;;;;;;5051193;28;20044;-83
2022/12/06 02:09:53;;;;;;;43.42;17.45;;;2.20;99.90;;;;;;5050561;28;20131;-83
2022/12/06 02:12:18;;;;;;;38.10;18.33;;;2.30;99.90;;;;;;5051465;28;20457;-83
2022/12/06 02:14:48;;;;;;;43.83;17.38;;;2.40;99.90;;;;;;5050143;28;20103;-83
2022/12/06 02:17:29;;;;;;;43.67;17.42;;;2.40;99.90;;;;;;5051537;28;20036;-83
2022/12/06 02:20:19;;;;;;;32.92;17.00;;;2.40;99.90;;;;;;5011927;28;20030;-83
2022/12/06 02:23:15;;;;;;;33.85;17.98;;;2.60;99.90;;;;;;5015296;28;20425;-83
2022/12/06 02:25:43;;;;;;;36.47;15.60;;;2.70;99.90;;;;;;5015495;28;20090;-82
2022/12/06 02:28:27;;;;;;;27.30;15.45;;;2.90;99.90;;;;;;5015375;28;20513;-83
2022/12/06 02:30:56;;;;;;;26.58;16.75;;;2.60;99.90;;;;;;5014406;28;20110;-83
2022/12/06 02:33:32;;;;;;;33.78;16.15;;;2.50;99.90;;;;;;5032390;28;20053;-82
2022/12/06 02:36:10;;;;;;;28.65;16.40;;;2.50;99.90;;;;;;5055087;28;20671;-83
2022/12/06 02:38:58;;;;;;;38.67;18.23;;;2.60;99.90;;;;;;5054906;28;20554;-83
2022/12/06 02:41:35;;;;;;;36.22;18.23;;;2.60;99.90;;;;;;5055132;28;20029;-83
2022/12/06 02:44:07;;;;;;;49.47;18.30;;;2.70;99.90;;;;;;5055141;28;20021;-83
2022/12/06 02:46:36;;;;;;;62.10;19.23;;;2.70;99.90;;;;;;5054889;28;20029;-83
2022/12/06 02:49:05;;;;;;;37.38;18.35;;;2.90;99.90;;;;;;5054832;28;20108;-83
2022/12/06 02:51:33;;;;;;;50.92;18.63;;;3.00;99.90;;;;;;5055001;28;20096;-83
2022/12/06 02:54:02;;;;;;;63.50;19.25;;;2.90;99.90;;;;;;5054707;28;20029;-83
2022/12/06 02:56:30;;;;;;;78.63;20.52;;;2.70;99.90;;;;;;5054999;28;20025;-83
2022/12/06 02:58:56;;;;;;;63.22;19.15;;;2.80;99.90;;;;;;5054684;28;20108;-83
2022/12/06 03:01:40;;;;;;;53.80;19.67;;;2.80;99.90;;;;;;5054775;28;20437;-83
2022/12/06 03:04:33;;;;;;;50.45;18.60;;;2.90;99.90;;;;;;5054578;28;20481;-83
2022/12/06 03:07:20;;;;;;;62.22;18.92;;;2.90;99.90;;;;;;5054515;28;20074;-83
2022/12/06 03:09:52;;;;;;;47.90;19.17;;;2.90;99.90;;;;;;5052953;28;20025;-83
2022/12/06 03:12:42;;;;;;;63.05;18.67;;;2.80;99.90;;;;;;5054280;28;20523;-82
2022/12/06 03:15:33;;;;;;;63.08;19.40;;;2.70;99.90;;;;;;5069929;28;20021;-83
2022/12/06 03:18:09;;;;;;;65.15;20.25;;;2.60;99.90;;;;;;5049911;28;20029;-83
2022/12/06 03:20:45;;;;;;;52.85;20.38;;;2.80;99.90;;;;;;5034053;28;20038;-83
2022/12/06 03:23:18;;;;;;;56.42;20.25;;;2.90;99.90;;;;;;5033201;28;20018;-83
2022/12/06 03:25:46;;;;;;;67.65;19.55;;;2.90;99.90;;;;;;5034025;28;20053;-82
2022/12/06 03:28:15;;;;;;;76.82;20.38;;;2.90;99.90;;;;;;5032928;28;20056;-84
2022/12/06 03:30:45;;;;;;;60.92;19.80;;;2.80;99.90;;;;;;5033777;28;20504;-83
2022/12/06 03:33:13;;;;;;;65.35;20.90;;;2.80;99.90;;;;;;5039206;28;20025;-83
2022/12/06 03:35:41;;;;;;;56.38;21.10;;;2.80;99.90;;;;;;5053675;28;20048;-84
2022/12/06 03:38:11;;;;;;;70.40;21.00;;;2.90;99.90;;;;;;5053605;28;20155;-83
2022/12/06 03:40:40;;;;;;;63.08;20.75;;;3.10;99.90;;;;;;5054114;28;20496;-83
2022/12/06 03:43:06;;;;;;;63.95;21.35;;;2.80;99.90;;;;;;5053981;28;20107;-83
2022/12/06 03:45:38;;;;;;;69.30;21.17;;;3.10;99.90;;;;;;5053595;28;20174;-83
2022/12/06 03:48:15;;;;;;;61.08;20.30;;;2.90;99.90;;;;;;5053248;28;20037;-83
2022/12/06 03:50:49;;;;;;;84.90;21.45;;;3.10;99.90;;;;;;5053151;28;20017;-83
2022/12/06 03:53:16;;;;;;;61.40;21.08;;;3.10;99.90;;;;;;5053272;28;20028;-84
2022/12/06 03:55:42;;;;;;;58.42;20.88;;;3.10;99.90;;;;;;5053375;28;20588;-83
2022/12/06 03:58:07;;;;;;;67.13;22.73;;;3.20;99.90;;;;;;5053830;28;20100;-83
2022/12/06 04:00:33;;;;;;;53.22;20.90;;;3.10;99.90;;;;;;5053357;28;20398;-84
2022/12/06 04:02:59;;;;;;;59.75;21.48;;;3.20;99.90;;;;;;5053453;28;20036;-83
2022/12/06 04:05:24;;;;;;;59.33;21.92;;;3.20;99.90;;;;;;5052783;28;20443;-83
2022/12/06 04:07:50;;;;;;;46.38;20.58;;;3.20;99.90;;;;;;5052960;28;20033;-83
2022/12/06 04:10:16;;;;;;;61.60;22.10;;;3.20;99.90;;;;;;5053282;28;20485;-83
2022/12/06 04:13:00;;;;;;;70.25;20.95;;;3.20;99.90;;;;;;5053565;28;20421;-84
2022/12/06 04:15:34;;;;;;;59.88;21.42;;;3.20;99.90;;;;;;5053274;28;20078;-83
2022/12/06 04:18:09;;;;;;;64.20;21.17;;;3.30;99.90;;;;;;5046704;28;20473;-83
2022/12/06 04:23:46;;;;;;;49.67;20.08;;;3.30;99.90;;;;;;5033894;28;20040;-84
2022/12/06 04:26:14;;;;;;;44.85;20.15;;;3.70;99.90;;;;;;5033302;28;20524;-83
2022/12/06 04:39:37;;;;;;;50.55;18.88;;;3.40;99.90;;;;;;5052687;28;20519;-84
2022/12/06 04:44:48;;;;;;;45.65;18.92;;;3.50;99.90;;;;;;5052718;28;20095;-84
2022/12/06 04:47:13;;;;;;;51.22;19.42;;;3.60;99.90;;;;;;5052053;28;20501;-83
2022/12/06 04:49:39;;;;;;;50.90;19.33;;;3.70;99.90;;;;;;5053082;28;20043;-84
2022/12/06 04:52:07;;;;;;;50.97;19.55;;;3.60;99.90;;;;;;5051262;28;20025;-84
2022/12/06 04:54:33;;;;;;;77.30;20.27;;;3.50;99.90;;;;;;5052618;28;20104;-83
2022/12/06 04:56:59;;;;;;;204.23;26.58;;;3.50;99.90;;;;;;5052690;28;20119;-83
2022/12/06 04:59:25;;;;;;;82.72;23.00;;;3.60;99.90;;;;;;5052746;28;20031;-84
2022/12/06 05:01:52;;;;;;;54.70;20.52;;;3.50;99.90;;;;;;5052219;28;20086;-83
2022/12/06 05:04:18;;;;;;;71.25;20.60;;;3.40;99.90;;;;;;5052911;28;20066;-84
2022/12/06 05:06:44;;;;;;;57.15;21.58;;;3.40;99.90;;;;;;5052437;28;20029;-83
2022/12/06 05:09:09;;;;;;;62.85;22.05;;;3.60;99.90;;;;;;5052092;28;20374;-84
2022/12/06 05:11:35;;;;;;;64.13;20.30;;;3.50;99.90;;;;;;5052292;28;20032;-84
2022/12/06 05:14:01;;;;;;;66.38;23.58;;;3.50;99.90;;;;;;5052619;28;20032;-84
2022/12/06 05:16:26;;;;;;;78.70;24.85;;;3.30;99.90;;;;;;5052176;28;20106;-84
2022/12/06 05:18:52;;;;;;;67.68;22.70;;;3.50;99.90;;;;;;5040590;28;20025;-84
2022/12/06 05:21:21;;;;;;;97.13;22.65;;;3.70;99.90;;;;;;5032036;28;20033;-84
2022/12/06 05:23:47;;;;;;;173.73;27.40;;;3.60;99.90;;;;;;5032456;28;20110;-84
2022/12/06 05:26:17;;;;;;;69.15;26.50;;;3.40;99.90;;;;;;5032216;28;20088;-84
2022/12/06 05:28:44;;;;;;;118.07;24.63;;;3.30;99.90;;;;;;5032181;28;20055;-83
2022/12/06 05:31:10;;;;;;;52.08;21.35;;;3.30;99.90;;;;;;5031675;28;20025;-84
2022/12/06 05:33:36;;;;;;;97.43;24.08;;;3.20;99.90;;;;;;5043059;28;20025;-83
2022/12/06 05:36:13;;;;;;;59.90;22.55;;;3.20;99.90;;;;;;5052108;28;20040;-84
2022/12/06 05:38:39;;;;;;;61.63;23.98;;;3.30;99.90;;;;;;5052139;28;20486;-84
2022/12/06 05:41:05;;;;;;;121.32;35.38;;;3.20;99.90;;;;;;5051283;28;20031;-84
2022/12/06 05:43:31;;;;;;;112.43;25.25;;;3.20;99.90;;;;;;5051740;28;20029;-84
2022/12/06 05:45:57;;;;;;;57.53;22.90;;;3.30;99.90;;;;;;5051198;28;20021;-84
2022/12/06 05:48:23;;;;;;;53.60;22.30;;;3.20;99.90;;;;;;5051877;28;20082;-84
2022/12/06 05:50:49;;;;;;;62.75;22.13;;;3.30;99.90;;;;;;5051758;28;20025;-84
2022/12/06 05:53:16;;;;;;;55.83;22.02;;;3.20;99.90;;;;;;5051886;28;20025;-84
2022/12/06 05:55:42;;;;;;;84.57;21.58;;;3.20;99.90;;;;;;5052144;28;20086;-83
2022/12/06 05:58:08;;;;;;;52.40;20.92;;;3.20;99.90;;;;;;5055931;28;20048;-84
2022/12/06 06:00:34;;;;;;;67.43;19.98;;;3.10;99.90;;;;;;5056040;28;20491;-84
2022/12/06 06:03:00;;;;;;;65.50;20.45;;;3.10;99.90;;;;;;5055676;28;20033;-84
2022/12/06 06:05:25;;;;;;;51.53;21.15;;;3.20;99.90;;;;;;5056458;28;20048;-83
2022/12/06 06:07:51;;;;;;;56.90;21.20;;;3.30;99.90;;;;;;5055998;28;20033;-84
2022/12/06 06:10:17;;;;;;;75.05;22.23;;;3.30;99.90;;;;;;5055517;28;20520;-84
2022/12/06 06:12:46;;;;;;;61.10;22.33;;;3.20;99.90;;;;;;5055821;28;20147;-84
2022/12/06 06:15:12;;;;;;;124.05;21.77;;;3.20;99.90;;;;;;5055219;28;20025;-84
2022/12/06 06:17:38;;;;;;;80.07;21.48;;;3.30;99.90;;;;;;5053627;28;20104;-83
2022/12/06 06:20:06;;;;;;;90.95;22.85;;;3.40;99.90;;;;;;5035851;28;20029;-84
2022/12/06 06:22:33;;;;;;;86.20;22.02;;;3.30;99.90;;;;;;5035221;28;20033;-84
2022/12/06 06:24:59;;;;;;;63.95;21.33;;;3.40;99.90;;;;;;5035103;28;20030;-84
2022/12/06 06:27:25;;;;;;;112.97;23.52;;;3.50;99.90;;;;;;5034985;28;20056;-84
2022/12/06 06:29:50;;;;;;;71.80;22.05;;;3.50;99.90;;;;;;5034694;28;20021;-84
2022/12/06 06:32:16;;;;;;;56.67;21.42;;;3.50;99.90;;;;;;5034561;28;20079;-84
2022/12/06 06:34:42;;;;;;;72.22;22.02;;;3.40;99.90;;;;;;5054556;28;20021;-83
2022/12/06 06:37:07;;;;;;;59.80;19.42;;;3.30;99.90;;;;;;5054823;28;20162;-84
2022/12/06 06:39:33;;;;;;;58.58;20.25;;;3.30;99.90;;;;;;5055367;28;20096;-84
2022/12/06 06:41:58;;;;;;;51.33;19.02;;;3.10;99.90;;;;;;5055271;28;20059;-84
2022/12/06 06:44:24;;;;;;;110.80;21.40;;;3.30;99.90;;;;;;5054271;28;20025;-84
2022/12/06 06:46:50;;;;;;;63.85;21.30;;;3.20;99.90;;;;;;5055386;28;20025;-84
2022/12/06 06:49:17;;;;;;;63.03;20.35;;;3.20;99.90;;;;;;5054776;28;20029;-84
2022/12/06 06:51:44;;;;;;;72.90;20.75;;;3.60;99.90;;;;;;5054770;28;20021;-84
2022/12/06 06:54:10;;;;;;;57.70;19.88;;;3.40;99.90;;;;;;5055631;28;20025;-84
2022/12/06 06:56:36;;;;;;;74.68;21.02;;;3.20;99.90;;;;;;5054689;28;20028;-83
2022/12/06 06:59:01;;;;;;;59.05;20.27;;;3.30;99.90;;;;;;5054160;28;20017;-84
2022/12/06 07:01:30;;;;;;;61.63;25.73;;;3.30;99.90;;;;;;5054097;28;20549;-84
2022/12/06 07:03:56;;;;;;;49.22;20.50;;;3.20;99.90;;;;;;5054081;28;20032;-84
2022/12/06 07:06:21;;;;;;;54.13;20.00;;;3.20;99.90;;;;;;5054618;28;20036;-84
2022/12/06 07:08:47;;;;;;;54.03;20.42;;;3.20;99.90;;;;;;5054676;28;20040;-84
2022/12/06 07:11:13;;;;;;;50.83;18.55;;;3.10;99.90;;;;;;5054288;28;20057;-83
2022/12/06 07:13:41;;;;;;;46.72;18.92;;;2.90;99.90;;;;;;5054136;28;20025;-85
2022/12/06 07:16:11;;;;;;;62.45;25.90;;;3.00;99.90;;;;;;5054450;28;20093;-85
2022/12/06 07:18:36;;;;;;;87.20;32.83;;;3.10;99.90;;;;;;5043461;28;20429;-85
2022/12/06 07:21:05;;;;;;;51.30;20.67;;;3.10;99.90;;;;;;5034434;28;20040;-85
2022/12/06 07:23:34;;;;;;;55.03;21.67;;;3.00;99.90;;;;;;5035252;28;20025;-85
2022/12/06 07:26:03;;;;;;;42.80;18.88;;;3.20;99.90;;;;;;5033633;28;20054;-82
2022/12/06 07:28:29;;;;;;;58.63;27.05;;;3.20;99.90;;;;;;5033082;28;20041;-82
2022/12/06 07:30:55;;;;;;;58.15;19.23;;;3.30;99.90;;;;;;5034559;28;20029;-82
2022/12/06 07:33:20;;;;;;;62.65;21.10;;;3.50;99.90;;;;;;5041647;28;20125;-82
2022/12/06 07:35:52;;;;;;;58.47;24.98;;;3.40;99.90;;;;;;5053435;28;20097;-82
2022/12/06 07:38:19;;;;;;;51.92;19.52;;;3.50;99.90;;;;;;5052332;28;20077;-82
2022/12/06 07:40:45;;;;;;;70.70;20.15;;;3.40;99.90;;;;;;5053296;28;20479;-82
2022/12/06 07:45:55;;;;;;;67.75;20.65;;;3.40;99.90;;;;;;5053476;28;20036;-82
2022/12/06 07:48:20;;;;;;;71.78;22.15;;;3.40;99.90;;;;;;5053449;28;20033;-82
2022/12/06 07:50:46;;;;;;;77.88;24.08;;;3.40;99.90;;;;;;5053503;28;20017;-82
2022/12/06 07:53:12;;;;;;;114.30;23.30;;;3.30;99.90;;;;;;5053233;28;20037;-82
2022/12/06 07:55:38;;;;;;;63.78;23.45;;;3.50;99.90;;;;;;5052936;28;20025;-82
2022/12/06 07:58:04;;;;;;;63.92;24.30;;;3.40;99.90;;;;;;5053786;28;20044;-82
2022/12/06 08:00:30;;;;;;;82.63;22.05;;;3.30;99.90;;;;;;5053190;28;20501;-82
2022/12/06 08:02:56;;;;;;;130.82;23.55;;;3.30;99.90;;;;;;5053204;28;20484;-82
2022/12/06 08:05:21;;;;;;;74.57;21.58;;;3.50;99.90;;;;;;5053933;28;20029;-82
2022/12/06 08:07:47;;;;;;;90.85;23.83;;;3.60;99.90;;;;;;5053305;28;20043;-82
2022/12/06 08:10:13;;;;;;;63.58;23.30;;;3.50;99.90;;;;;;5052457;28;20027;-82
2022/12/06 08:12:38;;;;;;;77.47;21.67;;;3.60;99.90;;;;;;5053397;28;20041;-82
2022/12/06 08:15:11;;;;;;;80.45;23.33;;;3.50;99.90;;;;;;5052961;28;20051;-82
2022/12/06 08:17:40;;;;;;;76.20;21.88;;;3.60;99.90;;;;;;5051713;28;20439;-82
2022/12/06 08:20:07;;;;;;;58.75;21.85;;;3.60;99.90;;;;;;5032361;28;20045;-82
2022/12/06 08:22:33;;;;;;;56.55;21.15;;;3.60;99.90;;;;;;5032868;28;20456;-82
2022/12/06 08:24:58;;;;;;;62.20;23.58;;;3.60;99.90;;;;;;5032891;28;20109;-82
2022/12/06 08:27:24;;;;;;;58.05;21.98;;;3.80;99.90;;;;;;5032566;28;20063;-82
2022/12/06 08:29:50;;;;;;;56.63;21.85;;;3.80;99.90;;;;;;5032708;28;20060;-82
2022/12/06 08:32:15;;;;;;;66.15;26.67;;;3.70;99.90;;;;;;5032769;28;20474;-82
2022/12/06 08:34:42;;;;;;;56.90;23.58;;;3.80;99.90;;;;;;5050643;28;20480;-82
2022/12/06 08:37:08;;;;;;;49.40;21.63;;;4.00;99.90;;;;;;5052542;28;20500;-82
2022/12/06 08:39:34;;;;;;;56.40;24.15;;;4.00;99.90;;;;;;5052378;28;20028;-82
2022/12/06 08:42:02;;;;;;;54.90;24.25;;;4.10;99.90;;;;;;5052890;28;20550;-82
2022/12/06 08:44:29;;;;;;;50.45;21.55;;;4.10;99.90;;;;;;5031409;28;20104;-82
2022/12/06 08:46:56;;;;;;;47.63;21.65;;;4.00;99.90;;;;;;5032478;28;20037;-82
2022/12/06 08:49:24;;;;;;;47.10;23.65;;;4.00;99.90;;;;;;5031962;28;20068;-82
2022/12/06 08:51:49;;;;;;;52.22;21.25;;;4.10;99.90;;;;;;5031253;28;20021;-82
2022/12/06 08:54:18;;;;;;;52.92;20.63;;;4.10;99.90;;;;;;5031462;28;20033;-82
2022/12/06 08:56:44;;;;;;;52.47;24.40;;;4.30;99.90;;;;;;5030984;28;20116;-82
2022/12/06 08:59:10;;;;;;;45.08;20.98;;;4.40;99.90;;;;;;5031427;28;20104;-82
2022/12/06 09:01:36;;;;;;;46.03;18.75;;;4.40;99.90;;;;;;5032388;28;20111;-82
2022/12/06 09:04:02;;;;;;;50.80;22.05;;;4.50;99.90;;;;;;5031538;28;20672;-82
2022/12/06 09:06:29;;;;;;;45.70;20.85;;;4.50;99.90;;;;;;5032240;28;20029;-82
2022/12/06 09:08:57;;;;;;;48.67;21.58;;;4.30;99.90;;;;;;5031295;28;20033;-83
2022/12/06 09:11:23;;;;;;;45.35;20.17;;;4.40;99.90;;;;;;5032206;28;20029;-82
2022/12/06 09:13:48;;;;;;;45.45;20.77;;;4.40;99.90;;;;;;5032202;28;20094;-83
2022/12/06 09:16:17;;;;;;;45.13;20.92;;;4.40;99.90;;;;;;5031871;28;20040;-83
2022/12/06 09:18:44;;;;;;;39.67;21.58;;;4.40;99.90;;;;;;5029940;28;20535;-82
2022/12/06 09:21:16;;;;;;;43.05;22.30;;;4.50;99.90;;;;;;5031545;28;20092;-80
2022/12/06 09:23:42;;;;;;;49.15;25.90;;;4.60;99.90;;;;;;5031705;28;20109;-81
2022/12/06 09:26:08;;;;;;;52.13;27.13;;;4.50;99.90;;;;;;5032120;28;20417;-82
2022/12/06 09:28:36;;;;;;;44.45;23.88;;;4.50;99.90;;;;;;5031824;28;20079;-81
2022/12/06 09:31:04;;;;;;;40.22;18.92;;;4.60;99.90;;;;;;5032681;28;20037;-83
2022/12/06 09:33:29;;;;;;;41.03;21.65;;;4.70;99.90;;;;;;5036175;28;20021;-83
2022/12/06 09:35:57;;;;;;;33.53;18.75;;;4.70;99.90;;;;;;5036244;28;20111;-82
2022/12/06 09:38:28;;;;;;;36.38;17.90;;;4.80;99.90;;;;;;5032137;28;20010;-82
2022/12/06 09:40:53;;;;;;;36.58;18.13;;;4.90;99.90;;;;;;5033109;28;20526;-82
2022/12/06 09:43:42;;;;;;;35.22;18.25;;;4.80;99.90;;;;;;5033346;28;20045;-82
2022/12/06 09:46:41;;;;;;;31.70;17.63;;;4.90;99.90;;;;;;5001070;28;20157;-82
2022/12/06 09:49:12;;;;;;;44.78;17.58;;;5.00;99.90;;;;;;5003986;28;20078;-82
2022/12/06 09:51:52;;;;;;;32.50;18.20;;;5.40;99.90;;;;;;4994349;28;20038;-82
2022/12/06 09:55:02;;;;;;;33.55;17.30;;;4.80;99.90;;;;;;4994312;28;20073;-82
2022/12/06 09:57:44;;;;;;;29.33;16.45;;;4.80;99.90;;;;;;4945087;29;20635;-83
2022/12/06 10:00:20;;;;;;;31.55;17.90;;;5.00;99.90;;;;;;4936711;29;20453;-82
2022/12/06 10:03:12;;;;;;;41.47;19.58;;;4.90;99.90;;;;;;4951600;29;20098;-82
2022/12/06 10:05:57;;;;;;;39.67;20.50;;;4.90;99.90;;;;;;4951627;29;20031;-83
2022/12/06 10:08:52;;;;;;;48.10;21.02;;;4.90;99.90;;;;;;4935596;29;20083;-83
2022/12/06 10:11:35;;;;;;;32.88;17.13;;;4.90;99.90;;;;;;4936615;29;20036;-83
2022/12/06 10:14:30;;;;;;;37.53;19.45;;;5.00;99.90;;;;;;4934942;29;20562;-82
2022/12/06 10:17:07;;;;;;;40.33;20.02;;;5.00;99.90;;;;;;4919719;29;20123;-82
2022/12/06 10:20:00;;;;;;;43.17;19.40;;;5.10;99.90;;;;;;4935382;29;20126;-83
2022/12/06 10:22:43;;;;;;;43.28;19.73;;;4.70;99.90;;;;;;4929824;29;20043;-83
2022/12/06 10:25:25;;;;;;;38.83;17.90;;;4.60;99.90;;;;;;4970317;28;20046;-84
2022/12/06 10:27:50;;;;;;;37.03;18.83;;;4.60;99.90;;;;;;4992815;28;20453;-84
2022/12/06 10:30:17;;;;;;;38.65;18.92;;;4.70;99.90;;;;;;5035455;28;20026;-81
2022/12/06 10:32:50;;;;;;;36.03;19.65;;;4.60;99.90;;;;;;5037622;28;20090;-81
2022/12/06 10:35:18;;;;;;;35.38;18.58;;;4.60;99.90;;;;;;5046735;28;20029;-83
2022/12/06 10:37:57;;;;;;;35.05;19.02;;;4.50;99.90;;;;;;5033526;28;20390;-81
2022/12/06 10:40:41;;;;;;;48.42;19.45;;;4.60;99.90;;;;;;5034914;28;20140;-81
2022/12/06 10:43:16;;;;;;;40.13;18.58;;;4.70;99.90;;;;;;5034342;28;20061;-82
2022/12/06 10:48:57;;;;;;;40.00;19.88;;;4.70;99.90;;;;;;5034630;28;20112;-80
2022/12/06 10:51:34;;;;;;;37.88;18.42;;;4.80;99.90;;;;;;5034840;28;20037;-81
2022/12/06 10:54:12;;;;;;;42.42;18.63;;;5.00;99.90;;;;;;5035689;28;20083;-81
2022/12/06 10:56:40;;;;;;;53.80;18.92;;;4.80;99.90;;;;;;5022137;28;20497;-80
2022/12/06 10:59:37;;;;;;;37.53;18.48;;;4.60;99.90;;;;;;5034359;28;20052;-81
2022/12/06 11:02:20;;;;;;;41.40;20.02;;;4.60;99.90;;;;;;5034030;28;20025;-80
2022/12/06 11:04:48;;;;;;;37.22;18.92;;;4.60;99.90;;;;;;5034096;28;20478;-86
2022/12/06 11:07:33;;;;;;;43.38;19.42;;;4.80;99.90;;;;;;5035147;28;20163;-87
2022/12/06 11:09:59;;;;;;;39.88;18.20;;;4.70;99.90;;;;;;5034466;28;20025;-88
2022/12/06 11:12:32;;;;;;;113.18;64.85;;;4.70;99.90;;;;;;5034742;28;20025;-85
2022/12/06 11:15:15;;;;;;;50.00;21.58;;;4.80;99.90;;;;;;5035019;28;20025;-82
2022/12/06 11:17:47;;;;;;;43.58;22.30;;;4.80;99.90;;;;;;5033615;28;20074;-81
2022/12/06 11:20:27;;;;;;;44.13;21.75;;;4.90;99.90;;;;;;5032570;28;20108;-81
2022/12/06 11:23:16;;;;;;;40.70;20.83;;;4.80;99.90;;;;;;5033584;28;20032;-82
2022/12/06 11:26:16;;;;;;;74.30;41.53;;;4.90;99.90;;;;;;5014410;28;20076;-87
2022/12/06 11:28:58;;;;;;;43.20;18.92;;;4.70;99.90;;;;;;5023983;28;20502;-87
2022/12/06 11:31:35;;;;;;;40.38;20.63;;;4.80;99.90;;;;;;5033196;28;20025;-81
2022/12/06 11:34:02;;;;;;;43.88;19.33;;;4.90;99.90;;;;;;5034061;28;20033;-86
2022/12/06 11:36:30;;;;;;;44.92;18.45;;;4.90;99.90;;;;;;5033923;28;20017;-87
2022/12/06 11:38:56;;;;;;;41.03;19.40;;;4.70;99.90;;;;;;5033518;28;20060;-82
2022/12/06 11:41:27;;;;;;;52.30;18.70;;;4.90;99.90;;;;;;5033277;28;20057;-82
2022/12/06 11:43:54;;;;;;;43.83;21.73;;;4.80;99.90;;;;;;5033700;28;20086;-82
2022/12/06 11:46:22;;;;;;;45.17;19.73;;;4.80;99.90;;;;;;5033116;28;20026;-81
2022/12/06 11:48:48;;;;;;;47.13;22.25;;;4.80;99.90;;;;;;5032572;28;20397;-82
2022/12/06 11:51:23;;;;;;;49.75;21.88;;;4.80;99.90;;;;;;5031020;28;20495;-82
2022/12/06 11:54:01;;;;;;;42.80;20.02;;;4.90;99.90;;;;;;5032410;28;20034;-83
2022/12/06 11:56:31;;;;;;;52.58;29.20;;;4.90;99.90;;;;;;5021135;28;20635;-81
2022/12/06 11:59:25;;;;;;;45.60;21.23;;;4.90;99.90;;;;;;5031659;28;20072;-81
2022/12/06 12:01:55;;;;;;;42.97;22.85;;;4.90;99.90;;;;;;5032720;28;20033;-81
2022/12/06 12:04:34;;;;;;;44.85;25.90;;;4.90;99.90;;;;;;5033601;28;20474;-82
2022/12/06 12:07:09;;;;;;;48.80;25.40;;;4.80;99.90;;;;;;5033302;28;20029;-85
2022/12/06 12:09:53;;;;;;;43.55;22.58;;;4.90;99.90;;;;;;5033183;28;20030;-82
2022/12/06 12:13:42;;;;;;;37.20;22.02;;;4.90;99.90;;;;;;5032355;28;20037;-82
2022/12/06 12:15:17;;;;;;;40.05;24.67;;;4.80;99.90;;;;;;5032861;28;20033;-82
2022/12/06 12:17:46;;;;;;;41.10;24.80;;;4.80;99.90;;;;;;5032365;28;20029;-83
2022/12/06 12:20:30;;;;;;;39.35;21.42;;;4.90;99.90;;;;;;5022751;28;20087;-81
2022/12/06 12:23:18;;;;;;;39.38;21.90;;;4.90;99.90;;;;;;5032702;28;20026;-82
2022/12/06 12:25:59;;;;;;;43.10;23.80;;;5.20;99.90;;;;;;5032799;28;20540;-82
2022/12/06 12:28:27;;;;;;;43.33;25.73;;;5.00;99.90;;;;;;5032267;28;20037;-82
2022/12/06 12:30:58;;;;;;;40.72;21.23;;;4.90;99.90;;;;;;5032603;28;20482;-82
2022/12/06 12:33:26;;;;;;;43.45;22.85;;;4.80;99.90;;;;;;5031978;28;20033;-82
2022/12/06 12:35:55;;;;;;;41.92;23.00;;;4.80;99.90;;;;;;5031739;28;20121;-82
2022/12/06 12:38:42;;;;;;;42.38;23.50;;;4.80;99.90;;;;;;5031622;28;20049;-82
2022/12/06 12:41:28;;;;;;;45.88;25.15;;;4.90;99.90;;;;;;5032167;28;20029;-82
2022/12/06 12:44:20;;;;;;;42.88;26.02;;;4.80;99.90;;;;;;5032132;28;20026;-82
2022/12/06 12:46:54;;;;;;;40.30;21.05;;;4.80;99.90;;;;;;5030653;28;20029;-82
2022/12/06 12:49:22;;;;;;;43.95;22.27;;;4.70;99.90;;;;;;5031928;28;20392;-82
2022/12/06 12:51:48;;;;;;;86.45;52.35;;;4.80;99.90;;;;;;5032305;28;20025;-82
2022/12/06 12:54:38;;;;;;;41.13;22.33;;;4.70;99.90;;;;;;5013902;28;20508;-82
2022/12/06 12:57:12;;;;;;;41.42;23.10;;;4.90;99.90;;;;;;5019385;28;20041;-82
2022/12/06 12:59:39;;;;;;;50.70;26.40;;;4.70;99.90;;;;;;5029868;28;20083;-82
2022/12/06 13:02:19;;;;;;;40.63;23.42;;;4.80;99.90;;;;;;5030008;28;20029;-82
2022/12/06 13:04:49;;;;;;;41.10;22.17;;;5.20;99.90;;;;;;5031897;28;20517;-82
2022/12/06 13:07:19;;;;;;;35.17;21.35;;;4.80;99.90;;;;;;5032136;28;20061;-82
2022/12/06 13:09:49;;;;;;;34.92;21.27;;;4.90;99.90;;;;;;5031559;28;20488;-82
2022/12/06 13:12:32;;;;;;;46.95;26.27;;;5.20;99.90;;;;;;5031718;28;20029;-82
2022/12/06 13:15:11;;;;;;;39.35;22.00;;;5.00;99.90;;;;;;5031037;28;20040;-82
2022/12/06 13:17:38;;;;;;;33.90;19.65;;;4.80;99.90;;;;;;5030808;28;20026;-82